Terminal Aerodrome Forecast
Issued by NWS Caribou, ME

Home | Current Version | Previous Version | Text Only | Print | Product List | Glossary On
Versions: 1 2 3 4 5 6 7 8 9 10 11 12 13 14 15 16 17 18 19
095
FTUS41 KCAR 141730
TAFBGR
TAF
KBGR 141730Z 1418/1518 31014G24KT P6SM SCT250
     FM150100 30008KT P6SM SCT250
     FM150700 27004KT P6SM FEW250
     FM151000 00000KT P6SM FEW250=

USA.gov is the U.S. government's official web portal to all federal, state and local government web resources and services.